Time;durP1;ratioP1;P1;durP2;ratioP2;P2;SDS_P1;SDS_P2;PMS_P1;PMS_P2;Temp;Humidity;BMP_temperature;BMP_pressure;BME280_temperature;BME280_humidity;BME280_pressure;Samples;Min_cycle;Max_cycle;Signal;HPM_P1;HPM_P2
2023/04/23 00:00:20;;;;;;;7.95;5.03;;;6.80;99.90;;;;;;5071886;28;20051;-65
2023/04/23 00:02:51;;;;;;;7.63;4.63;;;6.90;99.90;;;;;;5088876;28;20040;-62
2023/04/23 00:05:18;;;;;;;9.30;4.30;;;6.90;99.90;;;;;;5088063;28;20043;-65
2023/04/23 00:07:44;;;;;;;9.48;4.35;;;7.00;99.90;;;;;;5071481;28;20040;-64
2023/04/23 00:10:10;;;;;;;4.93;4.45;;;7.00;99.90;;;;;;5088113;28;20043;-65
2023/04/23 00:12:36;;;;;;;9.02;6.20;;;7.00;99.90;;;;;;5089274;28;20076;-65
2023/04/23 00:15:04;;;;;;;13.60;5.68;;;7.10;99.90;;;;;;5071564;28;20039;-65
2023/04/23 00:17:30;;;;;;;4.85;3.40;;;7.10;99.90;;;;;;5088629;28;20048;-65
2023/04/23 00:19:56;;;;;;;11.02;4.53;;;7.00;99.90;;;;;;5088275;28;20043;-65
2023/04/23 00:22:21;;;;;;;9.48;4.70;;;7.00;99.90;;;;;;5088608;28;20039;-65
2023/04/23 00:24:47;;;;;;;5.60;3.35;;;7.00;99.90;;;;;;5070770;28;20048;-65
2023/04/23 00:27:13;;;;;;;15.63;5.53;;;6.90;99.90;;;;;;5088165;28;20040;-65
2023/04/23 00:29:40;;;;;;;7.72;3.45;;;6.90;99.90;;;;;;5089569;28;20040;-64
2023/04/23 00:32:06;;;;;;;9.98;5.05;;;6.90;99.90;;;;;;5089132;28;20079;-64
2023/04/23 00:34:32;;;;;;;11.77;4.15;;;6.90;99.90;;;;;;5088206;28;20044;-64
2023/04/23 00:36:57;;;;;;;7.78;5.78;;;6.80;99.90;;;;;;5088080;28;20040;-64
2023/04/23 00:39:23;;;;;;;8.35;4.63;;;6.80;99.90;;;;;;5087548;28;20040;-65
2023/04/23 00:41:49;;;;;;;13.43;7.22;;;6.70;99.90;;;;;;5088047;28;20055;-65
2023/04/23 00:44:15;;;;;;;12.15;6.80;;;6.70;99.90;;;;;;5088121;28;20055;-65
2023/04/23 00:46:42;;;;;;;12.52;5.80;;;6.70;99.90;;;;;;5070560;28;20077;-65
2023/04/23 00:49:07;;;;;;;16.45;5.95;;;6.80;99.90;;;;;;5089468;28;20084;-65
2023/04/23 00:51:33;;;;;;;9.30;4.20;;;6.80;99.90;;;;;;5087970;28;20127;-64
2023/04/23 00:53:59;;;;;;;17.33;6.70;;;6.70;99.90;;;;;;5090869;28;20043;-64
2023/04/23 00:56:26;;;;;;;17.73;7.38;;;6.80;99.90;;;;;;5093203;28;20039;-64
2023/04/23 00:58:53;;;;;;;11.90;7.20;;;6.80;99.90;;;;;;5091571;28;20055;-65
2023/04/23 01:01:20;;;;;;;12.27;5.22;;;6.90;99.90;;;;;;5092567;28;20043;-65
2023/04/23 01:03:52;;;;;;;9.15;6.13;;;6.90;99.90;;;;;;5091971;28;20572;-65
2023/04/23 01:06:18;;;;;;;13.10;6.07;;;6.80;99.90;;;;;;5091641;28;20118;-64
2023/04/23 01:08:45;;;;;;;15.15;5.65;;;6.80;99.90;;;;;;5090776;28;20044;-65
2023/04/23 01:11:14;;;;;;;11.65;4.68;;;6.90;99.90;;;;;;5092651;28;20058;-64
2023/04/23 01:13:41;;;;;;;16.52;6.40;;;6.90;99.90;;;;;;5092206;28;20037;-65
2023/04/23 01:16:07;;;;;;;11.95;7.53;;;7.00;99.90;;;;;;5092837;28;20115;-64
2023/04/23 01:18:33;;;;;;;14.13;6.85;;;7.00;99.90;;;;;;5074517;28;20565;-64
2023/04/23 01:21:00;;;;;;;12.15;6.22;;;7.10;99.90;;;;;;5090851;28;20036;-64
2023/04/23 01:23:26;;;;;;;18.50;7.80;;;7.10;99.90;;;;;;5074426;28;20044;-63
2023/04/23 01:25:53;;;;;;;11.48;6.05;;;7.20;99.90;;;;;;5091408;28;20036;-64
2023/04/23 01:28:20;;;;;;;18.23;7.97;;;7.30;99.90;;;;;;5090360;28;20044;-63
2023/04/23 01:30:47;;;;;;;15.95;8.65;;;7.40;99.90;;;;;;5090945;28;20128;-63
2023/04/23 01:33:13;;;;;;;13.98;6.85;;;7.40;99.90;;;;;;5092305;28;20554;-64
2023/04/23 01:35:40;;;;;;;16.08;9.68;;;7.50;99.90;;;;;;5090722;28;20093;-63
2023/04/23 01:38:10;;;;;;;17.48;8.48;;;7.60;99.90;;;;;;5092446;28;20089;-65
2023/04/23 01:40:37;;;;;;;19.65;10.85;;;7.60;99.90;;;;;;5091157;28;20124;-64
2023/04/23 01:43:04;;;;;;;20.33;10.50;;;7.70;99.90;;;;;;5073535;28;20036;-63
2023/04/23 01:45:30;;;;;;;20.55;8.80;;;7.70;99.90;;;;;;5092036;28;20040;-65
2023/04/23 01:47:57;;;;;;;20.65;10.23;;;7.70;99.90;;;;;;5092073;28;20082;-63
2023/04/23 01:50:25;;;;;;;27.05;11.30;;;7.70;99.90;;;;;;5073242;28;20044;-63
2023/04/23 01:52:51;;;;;;;29.13;11.07;;;7.70;99.90;;;;;;5073914;28;20063;-64
2023/04/23 01:55:18;;;;;;;21.30;11.93;;;7.70;99.90;;;;;;5090702;28;20689;-62
2023/04/23 01:57:45;;;;;;;16.42;8.85;;;7.70;99.90;;;;;;5090230;28;20047;-64
2023/04/23 02:00:12;;;;;;;28.33;12.82;;;7.70;99.90;;;;;;5090373;28;20048;-64
2023/04/23 02:02:40;;;;;;;23.05;10.63;;;7.70;99.90;;;;;;5089788;28;20044;-64
2023/04/23 02:05:27;;;;;;;22.90;11.32;;;7.70;99.90;;;;;;5089647;28;20040;-64
2023/04/23 02:07:53;;;;;;;21.48;11.23;;;7.80;99.90;;;;;;5090516;28;20052;-65
2023/04/23 02:10:19;;;;;;;23.90;11.55;;;7.80;99.90;;;;;;5090865;28;20044;-65
2023/04/23 02:12:45;;;;;;;22.08;10.18;;;7.80;99.90;;;;;;5090428;28;20048;-63
2023/04/23 02:15:11;;;;;;;13.18;8.77;;;7.80;99.90;;;;;;5090214;28;20039;-65
2023/04/23 02:17:38;;;;;;;24.33;13.48;;;7.80;99.90;;;;;;5089658;28;20039;-64
2023/04/23 02:20:06;;;;;;;24.00;11.52;;;7.90;99.90;;;;;;5091401;28;20104;-65
2023/04/23 02:22:32;;;;;;;24.10;12.63;;;7.90;99.90;;;;;;5073417;28;20447;-66
2023/04/23 02:24:58;;;;;;;22.35;11.70;;;7.90;99.90;;;;;;5090835;28;20105;-64
2023/04/23 02:27:24;;;;;;;31.75;12.80;;;7.90;99.90;;;;;;5073046;28;20039;-64
2023/04/23 02:29:50;;;;;;;22.33;11.18;;;7.80;99.90;;;;;;5089944;28;20036;-65
2023/04/23 02:32:16;;;;;;;29.45;12.35;;;7.80;99.90;;;;;;5072411;28;20047;-64
2023/04/23 02:34:42;;;;;;;18.60;9.48;;;7.80;99.90;;;;;;5091212;28;20040;-65
2023/04/23 02:37:08;;;;;;;24.50;10.85;;;7.70;99.90;;;;;;5091325;28;20055;-64
2023/04/23 02:39:34;;;;;;;31.25;10.80;;;7.70;99.90;;;;;;5089181;28;20516;-63
2023/04/23 02:42:00;;;;;;;20.58;10.88;;;7.70;99.90;;;;;;5089729;28;20123;-64
2023/04/23 02:44:26;;;;;;;20.52;10.68;;;7.70;99.90;;;;;;5089969;28;20044;-65
2023/04/23 02:46:52;;;;;;;27.23;12.88;;;7.70;99.90;;;;;;5089279;28;20040;-64
2023/04/23 02:49:20;;;;;;;25.80;10.60;;;7.70;99.90;;;;;;5091057;28;20474;-64
2023/04/23 02:51:46;;;;;;;22.85;10.65;;;7.70;99.90;;;;;;5089375;28;20043;-65
2023/04/23 02:54:12;;;;;;;18.20;9.98;;;7.70;99.90;;;;;;5089340;28;20405;-64
2023/04/23 02:56:38;;;;;;;23.25;8.95;;;7.70;99.90;;;;;;5089619;28;20028;-64
2023/04/23 02:59:05;;;;;;;23.38;10.82;;;7.70;99.90;;;;;;5090149;28;20040;-65
2023/04/23 03:01:30;;;;;;;32.30;13.70;;;7.70;99.90;;;;;;5089530;28;20044;-65
2023/04/23 03:03:57;;;;;;;22.58;11.57;;;7.70;99.90;;;;;;5089307;28;20515;-65
2023/04/23 03:06:22;;;;;;;20.17;9.50;;;7.70;99.90;;;;;;5090499;28;20052;-64
2023/04/23 03:08:48;;;;;;;14.13;7.68;;;7.70;99.90;;;;;;5089305;28;20073;-63
2023/04/23 03:11:14;;;;;;;14.93;9.27;;;7.70;99.90;;;;;;5089122;28;20047;-65
2023/04/23 03:13:40;;;;;;;20.20;9.07;;;7.60;99.90;;;;;;5088549;28;20520;-65
2023/04/23 03:16:06;;;;;;;12.77;6.32;;;7.60;99.90;;;;;;5090187;28;20063;-65
2023/04/23 03:18:31;;;;;;;26.48;8.35;;;7.60;99.90;;;;;;5089089;28;20113;-65
2023/04/23 03:20:57;;;;;;;14.00;6.72;;;7.60;99.90;;;;;;5088343;28;20122;-65
2023/04/23 03:23:23;;;;;;;12.00;5.50;;;7.60;99.90;;;;;;5088964;28;20071;-65
2023/04/23 03:25:49;;;;;;;16.67;7.57;;;7.60;99.90;;;;;;5090441;28;20043;-65
2023/04/23 03:28:15;;;;;;;14.20;7.78;;;7.60;99.90;;;;;;5089424;28;20032;-65
2023/04/23 03:30:41;;;;;;;24.45;8.60;;;7.60;99.90;;;;;;5090277;28;20040;-65
2023/04/23 03:33:07;;;;;;;17.58;10.25;;;7.60;99.90;;;;;;5090086;28;20036;-65
2023/04/23 03:35:32;;;;;;;19.38;7.60;;;7.60;99.90;;;;;;5088575;28;20032;-64
2023/04/23 03:37:58;;;;;;;18.70;7.63;;;7.60;99.90;;;;;;5071789;28;20519;-64
2023/04/23 03:40:24;;;;;;;19.70;9.80;;;7.60;99.90;;;;;;5088914;28;20100;-65
2023/04/23 03:42:50;;;;;;;13.85;6.90;;;7.60;99.90;;;;;;5089485;28;20424;-65
2023/04/23 03:45:16;;;;;;;20.92;8.65;;;7.60;99.90;;;;;;5088673;28;20209;-65
2023/04/23 03:47:42;;;;;;;17.23;7.80;;;7.60;99.90;;;;;;5089086;28;20078;-65
2023/04/23 03:50:08;;;;;;;16.83;7.93;;;7.60;99.90;;;;;;5071791;28;20040;-64
2023/04/23 03:52:35;;;;;;;18.13;7.78;;;7.60;99.90;;;;;;5089974;28;20416;-65
2023/04/23 03:55:01;;;;;;;21.73;8.23;;;7.60;99.90;;;;;;5089425;28;20050;-65
2023/04/23 03:57:27;;;;;;;18.40;7.45;;;7.60;99.90;;;;;;5088616;28;20519;-65
2023/04/23 03:59:53;;;;;;;21.67;10.07;;;7.60;99.90;;;;;;5090030;28;20055;-65
2023/04/23 04:02:19;;;;;;;20.90;8.45;;;7.60;99.90;;;;;;5071598;28;20036;-65
2023/04/23 04:04:45;;;;;;;15.95;7.13;;;7.60;99.90;;;;;;5088789;28;20711;-65
2023/04/23 04:07:11;;;;;;;9.13;5.45;;;7.60;99.90;;;;;;5088419;28;20556;-65
2023/04/23 04:09:38;;;;;;;18.35;7.30;;;7.60;99.90;;;;;;5087745;28;20044;-65
2023/04/23 04:12:04;;;;;;;13.40;5.70;;;7.50;99.90;;;;;;5088181;28;20110;-65
2023/04/23 04:14:31;;;;;;;12.77;5.95;;;7.50;99.90;;;;;;5089912;28;20028;-64
2023/04/23 04:16:57;;;;;;;10.10;5.38;;;7.50;99.90;;;;;;5088971;28;20699;-65
2023/04/23 04:19:23;;;;;;;13.82;6.25;;;7.50;99.90;;;;;;5089411;28;20093;-65
2023/04/23 04:21:50;;;;;;;13.90;6.70;;;7.40;99.90;;;;;;5089637;28;20040;-65
2023/04/23 04:24:17;;;;;;;20.98;7.47;;;7.40;99.90;;;;;;5087758;28;20044;-65
2023/04/23 04:26:44;;;;;;;16.30;6.72;;;7.40;99.90;;;;;;5089745;28;20046;-64
2023/04/23 04:29:10;;;;;;;19.02;6.88;;;7.40;99.90;;;;;;5093722;28;20055;-64
2023/04/23 04:31:36;;;;;;;12.57;6.97;;;7.40;99.90;;;;;;5093376;28;20040;-65
2023/04/23 04:34:02;;;;;;;23.65;7.80;;;7.50;99.90;;;;;;5092334;28;20537;-64
2023/04/23 04:36:28;;;;;;;14.80;6.07;;;7.50;99.90;;;;;;5092404;28;20036;-64
2023/04/23 04:38:57;;;;;;;17.67;7.70;;;7.50;99.90;;;;;;5091544;28;20078;-64
2023/04/23 04:41:27;;;;;;;15.65;6.47;;;7.50;99.90;;;;;;5093146;28;20123;-65
2023/04/23 04:43:53;;;;;;;15.75;6.35;;;7.60;99.90;;;;;;5091623;28;20047;-63
2023/04/23 04:46:20;;;;;;;19.85;8.85;;;7.60;99.90;;;;;;5091922;28;20101;-65
2023/04/23 04:48:49;;;;;;;15.35;8.20;;;7.60;99.90;;;;;;5091756;28;20089;-65
2023/04/23 04:51:15;;;;;;;20.63;8.93;;;7.70;99.90;;;;;;5074691;28;20426;-65
2023/04/23 04:53:41;;;;;;;17.55;8.00;;;7.70;99.90;;;;;;5091688;28;20036;-65
2023/04/23 04:56:07;;;;;;;20.83;7.55;;;7.70;99.90;;;;;;5075020;28;20028;-65
2023/04/23 04:58:33;;;;;;;10.38;5.68;;;7.70;99.90;;;;;;5091287;28;20036;-65
2023/04/23 05:01:00;;;;;;;12.25;6.57;;;7.70;99.90;;;;;;5091908;28;20036;-64
2023/04/23 05:03:26;;;;;;;15.82;6.70;;;7.70;99.90;;;;;;5074594;28;20044;-64
2023/04/23 05:05:55;;;;;;;17.42;7.15;;;7.70;99.90;;;;;;5090816;28;20093;-64
2023/04/23 05:08:21;;;;;;;16.92;7.10;;;7.70;99.90;;;;;;5074800;28;20040;-65
2023/04/23 05:10:49;;;;;;;15.20;7.50;;;7.70;99.90;;;;;;5092635;28;20051;-64
2023/04/23 05:13:15;;;;;;;13.50;7.35;;;7.70;99.90;;;;;;5091108;28;20438;-64
2023/04/23 05:15:42;;;;;;;13.80;6.60;;;7.70;99.90;;;;;;5091640;28;20036;-62
2023/04/23 05:18:09;;;;;;;12.95;7.90;;;7.80;99.90;;;;;;5092934;28;20128;-65
2023/04/23 05:20:36;;;;;;;18.25;8.05;;;7.80;99.90;;;;;;5092277;28;20040;-64
2023/04/23 05:23:03;;;;;;;14.27;8.55;;;7.80;99.90;;;;;;5074577;28;20489;-65
2023/04/23 05:25:29;;;;;;;15.82;7.70;;;7.90;99.90;;;;;;5091235;28;20047;-63
2023/04/23 05:27:56;;;;;;;14.80;6.47;;;7.90;99.90;;;;;;5090672;28;20055;-65
2023/04/23 05:30:22;;;;;;;13.43;7.57;;;8.00;99.90;;;;;;5091230;28;20043;-64
2023/04/23 05:32:48;;;;;;;18.42;8.32;;;8.00;99.90;;;;;;5090454;28;20036;-64
2023/04/23 05:35:15;;;;;;;19.35;8.38;;;8.00;99.90;;;;;;5092236;28;20046;-64
2023/04/23 05:37:41;;;;;;;18.70;8.43;;;8.10;99.90;;;;;;5090944;28;20115;-64
2023/04/23 05:40:08;;;;;;;16.58;9.40;;;8.10;99.90;;;;;;5090253;28;20362;-64
2023/04/23 05:42:34;;;;;;;14.70;9.48;;;8.10;99.90;;;;;;5074356;28;20032;-63
2023/04/23 05:45:00;;;;;;;21.50;9.25;;;8.20;99.90;;;;;;5091108;28;20398;-64
2023/04/23 05:47:27;;;;;;;17.98;8.00;;;8.20;99.90;;;;;;5090490;28;20044;-65
2023/04/23 05:49:53;;;;;;;17.88;10.27;;;8.30;99.90;;;;;;5092208;28;20036;-64
2023/04/23 05:52:18;;;;;;;20.08;9.93;;;8.30;99.90;;;;;;5091004;28;20478;-64
2023/04/23 05:54:44;;;;;;;13.30;8.70;;;8.30;99.90;;;;;;5091750;28;20105;-64
2023/04/23 05:57:11;;;;;;;18.95;9.60;;;8.40;99.90;;;;;;5107414;28;20064;-63
2023/04/23 05:59:37;;;;;;;20.10;11.02;;;8.50;99.90;;;;;;5112267;28;20047;-64
2023/04/23 06:02:03;;;;;;;18.95;9.85;;;8.70;99.90;;;;;;5110230;28;20055;-65
2023/04/23 06:04:28;;;;;;;13.02;7.22;;;8.70;99.90;;;;;;5093568;28;20511;-64
2023/04/23 06:06:54;;;;;;;16.83;8.52;;;8.80;99.90;;;;;;5110748;28;20043;-63
2023/04/23 06:09:20;;;;;;;22.83;9.45;;;8.90;99.90;;;;;;5111125;28;20119;-65
2023/04/23 06:11:46;;;;;;;19.38;9.57;;;9.00;99.90;;;;;;5110786;28;20047;-64
2023/04/23 06:14:11;;;;;;;15.48;8.93;;;9.20;99.90;;;;;;5110651;28;20047;-64
2023/04/23 06:16:37;;;;;;;16.23;8.77;;;9.40;99.90;;;;;;5111676;28;20035;-63
2023/04/23 06:19:03;;;;;;;10.15;7.90;;;9.60;99.90;;;;;;5093690;28;20122;-64
2023/04/23 06:21:29;;;;;;;18.33;8.82;;;9.80;99.90;;;;;;5110442;28;20122;-64
2023/04/23 06:23:55;;;;;;;17.33;10.10;;;9.90;99.90;;;;;;5111527;28;20043;-65
2023/04/23 06:26:20;;;;;;;20.02;10.98;;;10.30;99.90;;;;;;5111907;28;20036;-64
2023/04/23 06:28:46;;;;;;;20.27;10.57;;;10.50;99.90;;;;;;5092737;28;20040;-64
2023/04/23 06:31:12;;;;;;;15.30;8.80;;;10.70;99.90;;;;;;5093386;28;20040;-64
2023/04/23 06:33:38;;;;;;;22.98;9.13;;;10.90;99.90;;;;;;5110293;28;20093;-64
2023/04/23 06:36:05;;;;;;;16.77;9.48;;;11.00;99.90;;;;;;5111056;28;20039;-64
2023/04/23 06:38:30;;;;;;;11.65;6.53;;;11.10;99.90;;;;;;5110243;28;20042;-63
2023/04/23 06:40:57;;;;;;;13.50;8.40;;;11.20;99.90;;;;;;5110105;28;20122;-64
2023/04/23 06:43:23;;;;;;;16.33;7.47;;;11.20;99.90;;;;;;5110479;28;20035;-63
2023/04/23 06:45:49;;;;;;;18.42;9.07;;;11.30;99.90;;;;;;5111501;28;20111;-64
2023/04/23 06:48:15;;;;;;;14.48;8.45;;;11.60;99.90;;;;;;5110085;28;20070;-64
2023/04/23 06:50:41;;;;;;;9.38;6.72;;;11.80;99.90;;;;;;5108679;28;20044;-63
2023/04/23 06:53:07;;;;;;;17.75;9.95;;;12.00;99.90;;;;;;5110095;28;20084;-63
2023/04/23 06:55:33;;;;;;;15.57;8.18;;;12.20;99.90;;;;;;5109775;28;20047;-64
2023/04/23 06:57:59;;;;;;;16.80;8.85;;;12.30;99.90;;;;;;5110631;28;20063;-64
2023/04/23 07:00:24;;;;;;;17.10;7.90;;;12.40;99.90;;;;;;5109825;28;20399;-63
2023/04/23 07:02:50;;;;;;;17.45;6.80;;;12.50;99.90;;;;;;5109888;28;20042;-65
2023/04/23 07:05:17;;;;;;;15.90;8.15;;;12.50;99.90;;;;;;5109251;28;20050;-64
2023/04/23 07:07:43;;;;;;;17.23;9.10;;;12.40;99.90;;;;;;5109804;28;20119;-64
2023/04/23 07:10:13;;;;;;;15.02;7.22;;;12.40;99.90;;;;;;5110373;28;20047;-63
2023/04/23 07:12:38;;;;;;;;;;;12.40;99.90;;;;;;5109597;28;20104;-64
2023/04/23 07:15:05;;;;;;;8.20;5.38;;;12.40;99.90;;;;;;5110627;28;19919;-64
2023/04/23 07:17:31;;;;;;;10.77;6.78;;;12.50;99.90;;;;;;5092388;28;20126;-64
2023/04/23 07:19:57;;;;;;;15.38;8.23;;;12.50;99.90;;;;;;5109061;28;20126;-64
2023/04/23 07:22:24;;;;;;;8.85;6.45;;;12.60;99.90;;;;;;5109402;28;20131;-63
2023/04/23 07:24:53;;;;;;;10.55;5.72;;;12.70;99.90;;;;;;5091999;28;20101;-64
2023/04/23 07:27:19;;;;;;;11.55;6.18;;;12.70;99.90;;;;;;5092388;28;20039;-64
2023/04/23 07:29:45;;;;;;;14.05;6.32;;;12.70;99.90;;;;;;5110275;28;20032;-64
2023/04/23 07:32:11;;;;;;;10.35;5.90;;;12.80;99.90;;;;;;5108777;28;20096;-64
2023/04/23 07:34:37;;;;;;;10.35;6.55;;;12.80;99.90;;;;;;5110631;28;20374;-65
2023/04/23 07:37:03;;;;;;;11.95;5.13;;;12.90;99.90;;;;;;5110208;28;20071;-64
2023/04/23 07:39:29;;;;;;;11.80;6.72;;;13.00;99.90;;;;;;5110045;28;20082;-65
2023/04/23 07:41:58;;;;;;;14.68;7.15;;;13.00;99.90;;;;;;5110681;28;20050;-65
2023/04/23 07:44:23;;;;;;;13.55;7.32;;;13.00;99.90;;;;;;5108948;28;20741;-64
2023/04/23 07:46:50;;;;;;;9.55;6.13;;;13.20;99.90;;;;;;5108403;28;20043;-64
2023/04/23 07:49:16;;;;;;;12.52;5.32;;;13.30;99.90;;;;;;5109065;28;20036;-64
2023/04/23 07:51:41;;;;;;;15.23;6.20;;;13.50;99.90;;;;;;5092128;28;20046;-65
2023/04/23 07:54:08;;;;;;;14.02;6.68;;;13.80;99.90;;;;;;5109737;28;20031;-65
2023/04/23 07:56:35;;;;;;;10.45;5.03;;;13.90;99.90;;;;;;5110321;28;20051;-64
2023/04/23 07:59:01;;;;;;;12.38;6.90;;;14.20;99.90;;;;;;5110220;28;20118;-64
2023/04/23 08:01:27;;;;;;;9.38;5.40;;;14.50;99.90;;;;;;5109740;28;20036;-64
2023/04/23 08:03:54;;;;;;;11.05;6.20;;;14.50;99.90;;;;;;5113366;28;20031;-64
2023/04/23 08:06:22;;;;;;;9.25;3.72;;;14.60;99.90;;;;;;5113129;28;20050;-65
2023/04/23 08:08:48;;;;;;;12.60;5.93;;;14.50;99.90;;;;;;5113605;28;20115;-64
2023/04/23 08:11:15;;;;;;;11.73;5.22;;;14.50;99.90;;;;;;5113050;28;20071;-64
2023/04/23 08:13:41;;;;;;;9.60;5.22;;;14.60;99.90;;;;;;5112300;28;20051;-65
2023/04/23 08:16:06;;;;;;;9.77;4.53;;;14.80;99.90;;;;;;5113047;28;20040;-64
2023/04/23 08:18:32;;;;;;;9.20;4.45;;;14.90;99.90;;;;;;5113298;28;20104;-65
2023/04/23 08:20:58;;;;;;;11.18;5.03;;;15.10;99.90;;;;;;5112244;28;20047;-64
2023/04/23 08:23:24;;;;;;;11.98;5.40;;;15.30;99.90;;;;;;5113016;28;20039;-64
2023/04/23 08:25:50;;;;;;;10.10;5.40;;;15.50;99.90;;;;;;5112801;28;20550;-65
2023/04/23 08:28:17;;;;;;;10.88;4.72;;;15.70;99.90;;;;;;5095125;28;20504;-64
2023/04/23 08:30:43;;;;;;;12.18;4.90;;;15.90;99.90;;;;;;5113623;28;20044;-65
2023/04/23 08:33:08;;;;;;;8.10;3.92;;;15.90;99.90;;;;;;5112842;28;20046;-65
2023/04/23 08:35:34;;;;;;;6.55;3.38;;;16.20;99.90;;;;;;5111812;28;20489;-65
2023/04/23 08:38:00;;;;;;;7.07;3.90;;;16.40;99.90;;;;;;5113882;28;20043;-64
2023/04/23 08:40:30;;;;;;;6.82;4.15;;;16.40;99.90;;;;;;5114109;28;20044;-64
2023/04/23 08:43:09;;;;;;;9.20;4.35;;;16.50;99.90;;;;;;5113357;28;20088;-64
2023/04/23 08:45:40;;;;;;;4.07;2.15;;;16.80;99.90;;;;;;5112427;28;20043;-65
2023/04/23 08:48:08;;;;;;;6.47;2.83;;;17.00;99.90;;;;;;5113993;28;20047;-65
2023/04/23 08:50:36;;;;;;;4.43;2.47;;;17.10;99.90;;;;;;5094553;28;20054;-64
2023/04/23 08:53:05;;;;;;;5.75;3.15;;;17.20;99.90;;;;;;5112164;28;20115;-65
2023/04/23 08:55:33;;;;;;;8.75;2.78;;;17.60;99.90;;;;;;5112370;28;20381;-65
2023/04/23 08:58:01;;;;;;;4.57;2.65;;;17.90;99.90;;;;;;5113443;28;20036;-65
2023/04/23 09:00:28;;;;;;;5.93;2.25;;;18.10;99.90;;;;;;5112022;28;20104;-65
2023/04/23 09:02:54;;;;;;;4.70;2.22;;;18.40;99.90;;;;;;5111626;28;20031;-65
2023/04/23 09:05:20;;;;;;;6.07;2.60;;;18.90;99.90;;;;;;5095095;28;20378;-65
2023/04/23 09:07:46;;;;;;;3.40;1.75;;;19.30;99.90;;;;;;5111999;28;20148;-65
2023/04/23 09:10:13;;;;;;;5.18;1.88;;;19.30;99.90;;;;;;5093892;28;20039;-66
2023/04/23 09:12:40;;;;;;;5.28;2.58;;;19.20;99.90;;;;;;5111511;28;20135;-66
2023/04/23 09:15:11;;;;;;;4.50;2.35;;;19.40;99.90;;;;;;5101951;28;20444;-65
2023/04/23 09:17:45;;;;;;;3.47;1.83;;;19.70;99.90;;;;;;5089735;28;20036;-65
2023/04/23 09:20:12;;;;;;;4.13;2.40;;;19.90;99.90;;;;;;5072232;28;20036;-66
2023/04/23 09:22:51;;;;;;;7.95;2.33;;;19.90;99.90;;;;;;5090208;28;20047;-64
2023/04/23 09:25:21;;;;;;;3.38;2.05;;;19.80;99.90;;;;;;5091378;28;20040;-65
2023/04/23 09:27:49;;;;;;;3.35;2.33;;;19.50;99.90;;;;;;5091675;28;20101;-64
2023/04/23 09:30:15;;;;;;;7.75;3.20;;;19.50;99.90;;;;;;5089992;28;20477;-66
2023/04/23 09:32:44;;;;;;;3.58;1.80;;;19.70;99.90;;;;;;5089481;28;20505;-64
2023/04/23 09:35:12;;;;;;;3.67;1.77;;;19.60;99.90;;;;;;5090270;28;20059;-65
2023/04/23 09:37:41;;;;;;;3.13;1.90;;;19.40;99.90;;;;;;5089773;28;20055;-65
2023/04/23 09:40:08;;;;;;;5.28;2.03;;;19.30;99.90;;;;;;5089907;28;20086;-63
2023/04/23 09:42:35;;;;;;;3.22;1.30;;;19.10;99.90;;;;;;5072511;28;20051;-65
2023/04/23 09:45:06;;;;;;;4.45;1.77;;;19.00;99.90;;;;;;5089598;28;20398;-65
2023/04/23 09:47:34;;;;;;;6.32;2.03;;;19.40;99.90;;;;;;5089759;28;20040;-65
2023/04/23 09:50:00;;;;;;;4.78;2.00;;;19.80;99.90;;;;;;5091188;28;20041;-66
2023/04/23 09:52:28;;;;;;;3.95;1.65;;;20.10;99.90;;;;;;5090566;28;20036;-65
2023/04/23 09:55:00;;;;;;;3.03;1.25;;;20.20;99.90;;;;;;5089912;28;20119;-65
2023/04/23 09:57:26;;;;;;;3.30;1.75;;;20.50;99.90;;;;;;5090821;28;20045;-65
2023/04/23 09:59:52;;;;;;;3.38;1.48;;;20.50;99.90;;;;;;5072077;28;20036;-66
2023/04/23 10:02:18;;;;;;;4.15;1.05;;;20.70;99.90;;;;;;5090804;28;20093;-65
2023/04/23 10:04:55;;;;;;;3.53;1.70;;;20.70;99.90;;;;;;5089973;28;20050;-66
2023/04/23 10:07:22;;;;;;;3.67;1.45;;;20.40;99.90;;;;;;5071913;28;20048;-65
2023/04/23 10:09:48;;;;;;;1.92;1.17;;;19.80;99.90;;;;;;5089368;28;20503;-65
2023/04/23 10:12:14;;;;;;;4.13;1.88;;;19.60;99.90;;;;;;5072405;28;20056;-65
2023/04/23 10:14:41;;;;;;;1.77;0.90;;;19.50;99.90;;;;;;5090171;28;20048;-64
2023/04/23 10:17:09;;;;;;;7.30;1.45;;;19.30;99.90;;;;;;5089208;28;20082;-65
2023/04/23 10:19:36;;;;;;;2.60;0.80;;;19.60;99.90;;;;;;5071652;28;20130;-65
2023/04/23 10:22:06;;;;;;;3.67;1.42;;;20.30;99.90;;;;;;5089254;28;20519;-65
2023/04/23 10:24:34;;;;;;;2.95;1.17;;;20.90;99.90;;;;;;5088303;28;20040;-65
2023/04/23 10:27:02;;;;;;;3.05;0.90;;;21.50;99.90;;;;;;5088109;28;20048;-65
2023/04/23 10:29:32;;;;;;;6.10;0.85;;;21.90;99.90;;;;;;5090452;28;20122;-64
2023/04/23 10:32:00;;;;;;;2.70;1.63;;;21.50;99.90;;;;;;5090133;28;20040;-65
2023/04/23 10:34:28;;;;;;;1.40;0.70;;;20.70;99.90;;;;;;5089756;28;20099;-65
2023/04/23 10:36:56;;;;;;;1.17;0.95;;;20.00;99.90;;;;;;5089114;28;20036;-64
2023/04/23 10:39:23;;;;;;;4.45;1.42;;;19.30;99.90;;;;;;5071942;28;20097;-65
2023/04/23 10:41:52;;;;;;;3.97;1.25;;;19.20;99.90;;;;;;5089854;28;20127;-65
2023/04/23 10:44:20;;;;;;;1.08;0.70;;;19.10;99.90;;;;;;5088895;28;20505;-63
2023/04/23 10:46:57;;;;;;;1.00;0.65;;;19.10;99.90;;;;;;5088637;28;20043;-65
2023/04/23 10:49:24;;;;;;;2.83;0.75;;;19.10;99.90;;;;;;5087956;28;20032;-65
2023/04/23 10:52:13;;;;;;;0.88;0.65;;;19.30;99.90;;;;;;5071938;28;20409;-64
2023/04/23 10:54:41;;;;;;;1.27;0.93;;;19.20;99.90;;;;;;5058976;28;20140;-65
2023/04/23 10:57:08;;;;;;;1.40;0.95;;;19.00;99.90;;;;;;5088397;28;20418;-64
2023/04/23 10:59:39;;;;;;;2.17;0.73;;;18.70;99.90;;;;;;5089952;28;20047;-65
2023/04/23 11:02:10;;;;;;;1.30;0.55;;;18.50;99.90;;;;;;5071291;28;20375;-65
2023/04/23 11:04:47;;;;;;;2.78;0.40;;;18.40;99.90;;;;;;5088690;28;20055;-65
2023/04/23 11:07:13;;;;;;;1.77;0.65;;;18.20;99.90;;;;;;5088250;28;20039;-64
2023/04/23 11:09:45;;;;;;;1.40;0.85;;;18.20;99.90;;;;;;5087613;28;20051;-65
2023/04/23 11:12:29;;;;;;;1.15;0.68;;;18.00;99.90;;;;;;5089357;28;20732;-65
2023/04/23 11:14:56;;;;;;;1.42;0.60;;;17.70;99.90;;;;;;5088410;28;20031;-65
2023/04/23 11:17:42;;;;;;;0.75;0.40;;;17.60;99.90;;;;;;5070484;28;20056;-64
2023/04/23 11:20:22;;;;;;;2.92;0.70;;;17.80;99.90;;;;;;5087835;28;20549;-64
2023/04/23 11:22:50;;;;;;;2.88;0.80;;;18.40;99.90;;;;;;5087541;28;20049;-65
2023/04/23 11:25:23;;;;;;;1.23;0.40;;;19.10;99.90;;;;;;5087883;28;20044;-65
2023/04/23 11:27:51;;;;;;;1.02;0.40;;;19.50;99.90;;;;;;5087878;28;20044;-65
2023/04/23 11:30:20;;;;;;;0.82;0.40;;;19.80;99.90;;;;;;5087324;28;20402;-65
2023/04/23 11:32:51;;;;;;;0.38;0.38;;;19.60;99.90;;;;;;5087995;28;20067;-64
2023/04/23 11:35:19;;;;;;;1.65;0.50;;;19.10;99.90;;;;;;5089074;28;20036;-64
2023/04/23 11:37:47;;;;;;;1.23;0.70;;;18.80;99.90;;;;;;5087173;28;20389;-65
2023/04/23 11:40:18;;;;;;;1.27;0.55;;;18.80;99.90;;;;;;5089332;28;20398;-65
2023/04/23 11:42:53;;;;;;;0.88;0.50;;;18.60;99.90;;;;;;5088010;28;20040;-64
2023/04/23 11:45:23;;;;;;;2.03;0.70;;;18.80;99.90;;;;;;5088253;28;20086;-65
2023/04/23 11:47:54;;;;;;;2.20;0.95;;;18.80;99.90;;;;;;5087899;28;20440;-65
2023/04/23 11:50:32;;;;;;;0.65;0.30;;;18.80;99.90;;;;;;5070767;28;20075;-63
2023/04/23 11:53:08;;;;;;;1.70;0.30;;;18.90;99.90;;;;;;5071081;28;20485;-64
2023/04/23 11:55:33;;;;;;;0.43;0.30;;;19.10;99.90;;;;;;5087500;28;20044;-65
2023/04/23 11:57:59;;;;;;;3.22;0.30;;;19.40;99.90;;;;;;5086993;28;20127;-65
2023/04/23 12:00:26;;;;;;;2.78;0.40;;;19.70;99.90;;;;;;5087912;28;20046;-63
2023/04/23 12:02:53;;;;;;;1.08;0.57;;;19.60;99.90;;;;;;5070588;28;20048;-64
2023/04/23 12:05:29;;;;;;;0.38;0.20;;;19.30;99.90;;;;;;5070146;28;20044;-64
2023/04/23 12:08:06;;;;;;;1.95;0.40;;;18.90;99.90;;;;;;5070922;28;20048;-63
2023/04/23 12:10:32;;;;;;;1.38;0.28;;;18.50;99.90;;;;;;5087238;28;20056;-64
2023/04/23 12:12:58;;;;;;;0.32;0.30;;;18.40;99.90;;;;;;5088306;28;20378;-64
2023/04/23 12:15:24;;;;;;;0.30;0.30;;;18.50;99.90;;;;;;5087563;28;20040;-64
2023/04/23 12:17:50;;;;;;;3.70;0.68;;;18.60;99.90;;;;;;5087530;28;20040;-64
2023/04/23 12:20:20;;;;;;;0.85;0.60;;;18.50;99.90;;;;;;5086719;28;20174;-65
2023/04/23 12:22:46;;;;;;;1.75;0.52;;;18.50;99.90;;;;;;5088851;28;20040;-64
2023/04/23 12:25:12;;;;;;;1.70;0.20;;;18.60;99.90;;;;;;5088571;28;20041;-64
2023/04/23 12:27:39;;;;;;;0.95;0.55;;;18.60;99.90;;;;;;5070083;28;20040;-64
2023/04/23 12:30:06;;;;;;;1.10;0.40;;;18.50;99.90;;;;;;5087182;28;20062;-64
2023/04/23 12:32:33;;;;;;;5.63;0.80;;;18.40;99.90;;;;;;5086825;28;20040;-64
2023/04/23 12:34:59;;;;;;;0.40;0.25;;;18.40;99.90;;;;;;5070708;28;20066;-65
2023/04/23 12:37:29;;;;;;;4.25;0.32;;;18.40;99.90;;;;;;5070353;28;20537;-64
2023/04/23 12:39:58;;;;;;;0.30;0.25;;;18.50;99.90;;;;;;5086498;28;20071;-64
2023/04/23 12:42:24;;;;;;;1.38;0.60;;;18.50;99.90;;;;;;5087368;28;20044;-64
2023/04/23 12:44:50;;;;;;;1.10;0.50;;;18.50;99.90;;;;;;5087344;28;20048;-64